sensor_id;sensor_type;location;lat;lon;timestamp;P1;durP1;ratioP1;P2;durP2;ratioP2
62848;SDS011;48941;49.516;8.286;2023-04-06T00:02:04;9.15;;;6.15;;
62848;SDS011;48941;49.516;8.286;2023-04-06T00:04:32;9.20;;;5.88;;
62848;SDS011;48941;49.516;8.286;2023-04-06T00:07:00;9.25;;;5.90;;
62848;SDS011;48941;49.516;8.286;2023-04-06T00:09:29;10.50;;;6.55;;
62848;SDS011;48941;49.516;8.286;2023-04-06T00:11:57;11.07;;;6.18;;
62848;SDS011;48941;49.516;8.286;2023-04-06T00:14:25;9.52;;;6.03;;
62848;SDS011;48941;49.516;8.286;2023-04-06T00:16:52;13.15;;;6.30;;
62848;SDS011;48941;49.516;8.286;2023-04-06T00:19:20;11.23;;;6.20;;
62848;SDS011;48941;49.516;8.286;2023-04-06T00:21:48;9.80;;;6.03;;
62848;SDS011;48941;49.516;8.286;2023-04-06T00:24:16;11.07;;;6.72;;
62848;SDS011;48941;49.516;8.286;2023-04-06T00:26:45;10.23;;;6.32;;
62848;SDS011;48941;49.516;8.286;2023-04-06T00:29:13;10.18;;;6.45;;
62848;SDS011;48941;49.516;8.286;2023-04-06T00:31:41;11.52;;;6.32;;
62848;SDS011;48941;49.516;8.286;2023-04-06T00:34:09;9.77;;;6.05;;
62848;SDS011;48941;49.516;8.286;2023-04-06T00:36:37;9.43;;;5.60;;
62848;SDS011;48941;49.516;8.286;2023-04-06T00:39:05;9.35;;;6.05;;
62848;SDS011;48941;49.516;8.286;2023-04-06T00:41:33;11.07;;;6.03;;
62848;SDS011;48941;49.516;8.286;2023-04-06T00:44:02;11.25;;;5.65;;
62848;SDS011;48941;49.516;8.286;2023-04-06T00:46:30;12.05;;;6.13;;
62848;SDS011;48941;49.516;8.286;2023-04-06T00:48:58;12.63;;;6.60;;
62848;SDS011;48941;49.516;8.286;2023-04-06T00:51:26;17.02;;;6.80;;
62848;SDS011;48941;49.516;8.286;2023-04-06T00:53:54;13.82;;;6.95;;
62848;SDS011;48941;49.516;8.286;2023-04-06T00:56:22;10.02;;;6.43;;
62848;SDS011;48941;49.516;8.286;2023-04-06T00:58:52;11.52;;;6.38;;
62848;SDS011;48941;49.516;8.286;2023-04-06T01:01:22;9.45;;;6.13;;
62848;SDS011;48941;49.516;8.286;2023-04-06T01:03:51;12.38;;;6.22;;
62848;SDS011;48941;49.516;8.286;2023-04-06T01:06:19;14.32;;;6.65;;
62848;SDS011;48941;49.516;8.286;2023-04-06T01:08:46;11.65;;;6.55;;
62848;SDS011;48941;49.516;8.286;2023-04-06T01:11:14;13.32;;;6.43;;
62848;SDS011;48941;49.516;8.286;2023-04-06T01:13:42;12.20;;;6.35;;
62848;SDS011;48941;49.516;8.286;2023-04-06T01:16:10;14.55;;;6.18;;
62848;SDS011;48941;49.516;8.286;2023-04-06T01:18:39;14.27;;;6.97;;
62848;SDS011;48941;49.516;8.286;2023-04-06T01:21:08;12.45;;;6.82;;
62848;SDS011;48941;49.516;8.286;2023-04-06T01:23:43;8.88;;;5.68;;
62848;SDS011;48941;49.516;8.286;2023-04-06T01:26:12;13.55;;;6.63;;
62848;SDS011;48941;49.516;8.286;2023-04-06T01:28:40;11.23;;;6.13;;
62848;SDS011;48941;49.516;8.286;2023-04-06T01:31:08;8.07;;;5.35;;
62848;SDS011;48941;49.516;8.286;2023-04-06T01:33:36;10.75;;;6.10;;
62848;SDS011;48941;49.516;8.286;2023-04-06T01:36:05;8.23;;;5.88;;
62848;SDS011;48941;49.516;8.286;2023-04-06T01:38:33;8.55;;;5.35;;
62848;SDS011;48941;49.516;8.286;2023-04-06T01:41:02;11.88;;;5.93;;
62848;SDS011;48941;49.516;8.286;2023-04-06T01:43:30;9.57;;;5.90;;
62848;SDS011;48941;49.516;8.286;2023-04-06T01:45:58;11.65;;;5.28;;
62848;SDS011;48941;49.516;8.286;2023-04-06T01:48:26;12.88;;;5.88;;
62848;SDS011;48941;49.516;8.286;2023-04-06T01:50:54;9.77;;;5.70;;
62848;SDS011;48941;49.516;8.286;2023-04-06T01:53:22;8.23;;;5.65;;
62848;SDS011;48941;49.516;8.286;2023-04-06T01:55:50;7.72;;;5.93;;
62848;SDS011;48941;49.516;8.286;2023-04-06T01:58:19;10.80;;;6.05;;
62848;SDS011;48941;49.516;8.286;2023-04-06T02:00:47;8.65;;;5.75;;
62848;SDS011;48941;49.516;8.286;2023-04-06T02:03:15;8.88;;;5.38;;
62848;SDS011;48941;49.516;8.286;2023-04-06T02:05:43;10.82;;;5.65;;
62848;SDS011;48941;49.516;8.286;2023-04-06T02:08:11;8.48;;;5.50;;
62848;SDS011;48941;49.516;8.286;2023-04-06T02:10:39;8.32;;;5.10;;
62848;SDS011;48941;49.516;8.286;2023-04-06T02:13:06;13.20;;;5.82;;
62848;SDS011;48941;49.516;8.286;2023-04-06T02:15:36;9.73;;;6.85;;
62848;SDS011;48941;49.516;8.286;2023-04-06T02:18:03;10.32;;;7.57;;
62848;SDS011;48941;49.516;8.286;2023-04-06T02:20:31;12.18;;;7.40;;
62848;SDS011;48941;49.516;8.286;2023-04-06T02:22:59;14.18;;;9.48;;
62848;SDS011;48941;49.516;8.286;2023-04-06T02:25:27;14.82;;;10.27;;
62848;SDS011;48941;49.516;8.286;2023-04-06T02:27:55;14.50;;;9.90;;
62848;SDS011;48941;49.516;8.286;2023-04-06T02:30:23;14.60;;;9.25;;
62848;SDS011;48941;49.516;8.286;2023-04-06T02:32:52;11.52;;;7.50;;
62848;SDS011;48941;49.516;8.286;2023-04-06T02:35:20;9.77;;;6.28;;
62848;SDS011;48941;49.516;8.286;2023-04-06T02:37:48;8.98;;;6.78;;
62848;SDS011;48941;49.516;8.286;2023-04-06T02:40:16;10.68;;;6.50;;
62848;SDS011;48941;49.516;8.286;2023-04-06T02:42:44;8.10;;;5.68;;
62848;SDS011;48941;49.516;8.286;2023-04-06T02:45:11;11.95;;;5.60;;
62848;SDS011;48941;49.516;8.286;2023-04-06T02:47:39;7.82;;;5.07;;
62848;SDS011;48941;49.516;8.286;2023-04-06T02:50:09;7.03;;;5.07;;
62848;SDS011;48941;49.516;8.286;2023-04-06T02:52:37;10.75;;;5.68;;
62848;SDS011;48941;49.516;8.286;2023-04-06T02:55:05;10.55;;;6.35;;
62848;SDS011;48941;49.516;8.286;2023-04-06T02:57:34;10.60;;;6.75;;
62848;SDS011;48941;49.516;8.286;2023-04-06T03:00:02;12.13;;;7.32;;
62848;SDS011;48941;49.516;8.286;2023-04-06T03:02:30;15.60;;;8.60;;
62848;SDS011;48941;49.516;8.286;2023-04-06T03:04:58;9.40;;;6.30;;
62848;SDS011;48941;49.516;8.286;2023-04-06T03:07:27;9.35;;;5.95;;
62848;SDS011;48941;49.516;8.286;2023-04-06T03:09:55;9.20;;;6.65;;
62848;SDS011;48941;49.516;8.286;2023-04-06T03:12:23;11.50;;;6.25;;
62848;SDS011;48941;49.516;8.286;2023-04-06T03:14:51;7.45;;;5.13;;
62848;SDS011;48941;49.516;8.286;2023-04-06T03:17:18;10.95;;;5.80;;
62848;SDS011;48941;49.516;8.286;2023-04-06T03:19:46;9.82;;;5.65;;
62848;SDS011;48941;49.516;8.286;2023-04-06T03:22:14;7.53;;;5.03;;
62848;SDS011;48941;49.516;8.286;2023-04-06T03:24:43;8.80;;;5.75;;
62848;SDS011;48941;49.516;8.286;2023-04-06T03:27:11;9.35;;;5.25;;
62848;SDS011;48941;49.516;8.286;2023-04-06T03:29:39;9.38;;;5.40;;
62848;SDS011;48941;49.516;8.286;2023-04-06T03:32:07;9.63;;;5.05;;
62848;SDS011;48941;49.516;8.286;2023-04-06T03:34:36;11.30;;;5.10;;
62848;SDS011;48941;49.516;8.286;2023-04-06T03:37:04;11.55;;;5.85;;
62848;SDS011;48941;49.516;8.286;2023-04-06T03:39:35;8.00;;;5.20;;
62848;SDS011;48941;49.516;8.286;2023-04-06T03:42:05;10.10;;;5.10;;
62848;SDS011;48941;49.516;8.286;2023-04-06T03:44:32;12.63;;;5.80;;
62848;SDS011;48941;49.516;8.286;2023-04-06T03:47:00;13.45;;;5.03;;
62848;SDS011;48941;49.516;8.286;2023-04-06T03:49:31;8.63;;;5.35;;
62848;SDS011;48941;49.516;8.286;2023-04-06T03:51:59;12.77;;;5.50;;
62848;SDS011;48941;49.516;8.286;2023-04-06T03:54:27;9.48;;;4.60;;
62848;SDS011;48941;49.516;8.286;2023-04-06T03:56:55;14.77;;;5.40;;
62848;SDS011;48941;49.516;8.286;2023-04-06T03:59:25;9.45;;;6.00;;
62848;SDS011;48941;49.516;8.286;2023-04-06T04:01:52;8.85;;;5.68;;
62848;SDS011;48941;49.516;8.286;2023-04-06T04:04:20;9.82;;;5.80;;
62848;SDS011;48941;49.516;8.286;2023-04-06T04:06:48;10.88;;;5.85;;
62848;SDS011;48941;49.516;8.286;2023-04-06T04:09:16;11.40;;;5.90;;
62848;SDS011;48941;49.516;8.286;2023-04-06T04:11:44;13.13;;;5.55;;
62848;SDS011;48941;49.516;8.286;2023-04-06T04:14:12;13.45;;;6.20;;
62848;SDS011;48941;49.516;8.286;2023-04-06T04:16:41;13.68;;;5.85;;
62848;SDS011;48941;49.516;8.286;2023-04-06T04:19:09;11.13;;;5.72;;
62848;SDS011;48941;49.516;8.286;2023-04-06T04:21:42;11.02;;;6.50;;
62848;SDS011;48941;49.516;8.286;2023-04-06T04:24:11;9.65;;;5.55;;
62848;SDS011;48941;49.516;8.286;2023-04-06T04:26:39;10.88;;;6.13;;
62848;SDS011;48941;49.516;8.286;2023-04-06T04:29:07;9.65;;;6.00;;
62848;SDS011;48941;49.516;8.286;2023-04-06T04:31:36;10.30;;;5.75;;
62848;SDS011;48941;49.516;8.286;2023-04-06T04:34:05;9.00;;;6.05;;
62848;SDS011;48941;49.516;8.286;2023-04-06T04:36:34;10.60;;;5.80;;
62848;SDS011;48941;49.516;8.286;2023-04-06T04:39:02;11.27;;;6.40;;
62848;SDS011;48941;49.516;8.286;2023-04-06T04:41:30;9.90;;;5.82;;
62848;SDS011;48941;49.516;8.286;2023-04-06T04:43:57;27.13;;;7.88;;
62848;SDS011;48941;49.516;8.286;2023-04-06T04:46:25;16.23;;;6.82;;
62848;SDS011;48941;49.516;8.286;2023-04-06T04:48:53;15.25;;;8.20;;
62848;SDS011;48941;49.516;8.286;2023-04-06T04:51:22;15.27;;;8.52;;
62848;SDS011;48941;49.516;8.286;2023-04-06T04:53:51;12.55;;;7.05;;
62848;SDS011;48941;49.516;8.286;2023-04-06T04:56:19;13.63;;;7.22;;
62848;SDS011;48941;49.516;8.286;2023-04-06T04:58:47;13.45;;;7.78;;
62848;SDS011;48941;49.516;8.286;2023-04-06T05:01:14;12.38;;;6.88;;
62848;SDS011;48941;49.516;8.286;2023-04-06T05:03:42;14.55;;;8.07;;
62848;SDS011;48941;49.516;8.286;2023-04-06T05:06:10;16.23;;;9.00;;
62848;SDS011;48941;49.516;8.286;2023-04-06T05:08:40;17.98;;;8.95;;
62848;SDS011;48941;49.516;8.286;2023-04-06T05:11:08;16.85;;;8.82;;
62848;SDS011;48941;49.516;8.286;2023-04-06T05:13:37;12.95;;;7.00;;
62848;SDS011;48941;49.516;8.286;2023-04-06T05:16:05;9.77;;;5.28;;
62848;SDS011;48941;49.516;8.286;2023-04-06T05:18:34;10.50;;;5.85;;
62848;SDS011;48941;49.516;8.286;2023-04-06T05:21:02;19.92;;;6.30;;
62848;SDS011;48941;49.516;8.286;2023-04-06T05:23:30;19.23;;;7.40;;
62848;SDS011;48941;49.516;8.286;2023-04-06T05:25:59;25.63;;;6.65;;
62848;SDS011;48941;49.516;8.286;2023-04-06T05:28:27;24.17;;;6.43;;
62848;SDS011;48941;49.516;8.286;2023-04-06T05:30:55;14.13;;;7.00;;
62848;SDS011;48941;49.516;8.286;2023-04-06T05:33:23;13.57;;;6.68;;
62848;SDS011;48941;49.516;8.286;2023-04-06T05:35:52;21.05;;;7.15;;
62848;SDS011;48941;49.516;8.286;2023-04-06T05:38:20;12.93;;;7.38;;
62848;SDS011;48941;49.516;8.286;2023-04-06T05:40:48;12.95;;;7.53;;
62848;SDS011;48941;49.516;8.286;2023-04-06T05:43:17;17.95;;;8.23;;
62848;SDS011;48941;49.516;8.286;2023-04-06T05:45:48;15.27;;;8.90;;
62848;SDS011;48941;49.516;8.286;2023-04-06T05:48:16;16.88;;;9.50;;
62848;SDS011;48941;49.516;8.286;2023-04-06T05:50:47;15.50;;;10.13;;
62848;SDS011;48941;49.516;8.286;2023-04-06T05:53:15;24.50;;;10.98;;
62848;SDS011;48941;49.516;8.286;2023-04-06T05:55:43;21.48;;;9.93;;
62848;SDS011;48941;49.516;8.286;2023-04-06T05:58:11;19.20;;;9.30;;
62848;SDS011;48941;49.516;8.286;2023-04-06T06:00:40;20.40;;;9.60;;
62848;SDS011;48941;49.516;8.286;2023-04-06T06:03:09;19.33;;;9.50;;
62848;SDS011;48941;49.516;8.286;2023-04-06T06:05:37;19.20;;;10.30;;
62848;SDS011;48941;49.516;8.286;2023-04-06T06:08:05;19.92;;;10.43;;
62848;SDS011;48941;49.516;8.286;2023-04-06T06:10:33;20.60;;;10.40;;
62848;SDS011;48941;49.516;8.286;2023-04-06T06:13:01;18.98;;;10.05;;
62848;SDS011;48941;49.516;8.286;2023-04-06T06:15:28;17.88;;;10.02;;
62848;SDS011;48941;49.516;8.286;2023-04-06T06:17:58;17.60;;;10.07;;
62848;SDS011;48941;49.516;8.286;2023-04-06T06:20:26;21.42;;;9.70;;
62848;SDS011;48941;49.516;8.286;2023-04-06T06:22:54;17.80;;;10.10;;
62848;SDS011;48941;49.516;8.286;2023-04-06T06:25:22;18.40;;;9.60;;
62848;SDS011;48941;49.516;8.286;2023-04-06T06:27:50;15.98;;;9.82;;
62848;SDS011;48941;49.516;8.286;2023-04-06T06:30:18;19.40;;;10.38;;
62848;SDS011;48941;49.516;8.286;2023-04-06T06:32:49;19.77;;;10.40;;
62848;SDS011;48941;49.516;8.286;2023-04-06T06:35:19;22.30;;;9.48;;
62848;SDS011;48941;49.516;8.286;2023-04-06T06:37:47;15.90;;;9.32;;
62848;SDS011;48941;49.516;8.286;2023-04-06T06:40:14;17.73;;;10.25;;
62848;SDS011;48941;49.516;8.286;2023-04-06T06:42:44;17.63;;;9.57;;
62848;SDS011;48941;49.516;8.286;2023-04-06T06:45:12;15.88;;;9.95;;
62848;SDS011;48941;49.516;8.286;2023-04-06T06:47:39;15.82;;;9.80;;
62848;SDS011;48941;49.516;8.286;2023-04-06T06:50:08;26.38;;;10.70;;
62848;SDS011;48941;49.516;8.286;2023-04-06T06:52:37;16.35;;;9.73;;
62848;SDS011;48941;49.516;8.286;2023-04-06T06:55:06;16.10;;;10.05;;
62848;SDS011;48941;49.516;8.286;2023-04-06T06:57:34;14.52;;;9.70;;
62848;SDS011;48941;49.516;8.286;2023-04-06T07:00:02;18.45;;;10.63;;
62848;SDS011;48941;49.516;8.286;2023-04-06T07:02:31;17.88;;;9.90;;
62848;SDS011;48941;49.516;8.286;2023-04-06T07:05:02;16.50;;;9.90;;
62848;SDS011;48941;49.516;8.286;2023-04-06T07:07:51;15.88;;;9.52;;
62848;SDS011;48941;49.516;8.286;2023-04-06T07:10:19;16.67;;;9.73;;
62848;SDS011;48941;49.516;8.286;2023-04-06T07:12:47;16.50;;;9.63;;
62848;SDS011;48941;49.516;8.286;2023-04-06T07:15:15;20.85;;;10.10;;
62848;SDS011;48941;49.516;8.286;2023-04-06T07:17:44;17.30;;;9.13;;
62848;SDS011;48941;49.516;8.286;2023-04-06T07:20:12;15.98;;;9.50;;
62848;SDS011;48941;49.516;8.286;2023-04-06T07:22:42;15.30;;;9.90;;
62848;SDS011;48941;49.516;8.286;2023-04-06T07:25:12;19.73;;;10.20;;
62848;SDS011;48941;49.516;8.286;2023-04-06T07:27:40;17.52;;;10.05;;
62848;SDS011;48941;49.516;8.286;2023-04-06T07:30:08;15.48;;;9.52;;
62848;SDS011;48941;49.516;8.286;2023-04-06T07:32:37;16.65;;;10.18;;
62848;SDS011;48941;49.516;8.286;2023-04-06T07:35:05;18.02;;;10.23;;
62848;SDS011;48941;49.516;8.286;2023-04-06T07:37:33;17.65;;;10.75;;
62848;SDS011;48941;49.516;8.286;2023-04-06T07:40:01;18.10;;;10.93;;
62848;SDS011;48941;49.516;8.286;2023-04-06T07:42:30;18.38;;;11.20;;
62848;SDS011;48941;49.516;8.286;2023-04-06T07:44:59;15.93;;;10.65;;
62848;SDS011;48941;49.516;8.286;2023-04-06T07:47:27;19.85;;;9.70;;
62848;SDS011;48941;49.516;8.286;2023-04-06T07:49:55;15.02;;;9.80;;
62848;SDS011;48941;49.516;8.286;2023-04-06T07:52:23;16.98;;;9.73;;
62848;SDS011;48941;49.516;8.286;2023-04-06T07:54:51;16.50;;;9.45;;
62848;SDS011;48941;49.516;8.286;2023-04-06T07:57:19;12.63;;;8.55;;
62848;SDS011;48941;49.516;8.286;2023-04-06T07:59:48;13.43;;;8.40;;
62848;SDS011;48941;49.516;8.286;2023-04-06T08:02:16;12.55;;;8.52;;
62848;SDS011;48941;49.516;8.286;2023-04-06T08:04:45;14.00;;;8.20;;
62848;SDS011;48941;49.516;8.286;2023-04-06T08:07:13;13.50;;;8.05;;
62848;SDS011;48941;49.516;8.286;2023-04-06T08:09:40;19.38;;;9.13;;
62848;SDS011;48941;49.516;8.286;2023-04-06T08:12:08;15.20;;;8.75;;
62848;SDS011;48941;49.516;8.286;2023-04-06T08:14:36;15.05;;;9.18;;
62848;SDS011;48941;49.516;8.286;2023-04-06T08:17:05;17.58;;;9.70;;
62848;SDS011;48941;49.516;8.286;2023-04-06T08:19:33;13.23;;;8.25;;
62848;SDS011;48941;49.516;8.286;2023-04-06T08:22:01;14.35;;;8.80;;
62848;SDS011;48941;49.516;8.286;2023-04-06T08:24:29;13.07;;;9.02;;
62848;SDS011;48941;49.516;8.286;2023-04-06T08:26:58;13.57;;;9.07;;
62848;SDS011;48941;49.516;8.286;2023-04-06T08:29:26;15.23;;;9.10;;
62848;SDS011;48941;49.516;8.286;2023-04-06T08:31:54;19.95;;;9.73;;
62848;SDS011;48941;49.516;8.286;2023-04-06T08:34:23;15.85;;;9.63;;
62848;SDS011;48941;49.516;8.286;2023-04-06T08:36:51;19.55;;;9.35;;
62848;SDS011;48941;49.516;8.286;2023-04-06T08:39:19;14.68;;;9.50;;
62848;SDS011;48941;49.516;8.286;2023-04-06T08:41:51;15.95;;;10.02;;
62848;SDS011;48941;49.516;8.286;2023-04-06T08:44:23;15.98;;;9.32;;
62848;SDS011;48941;49.516;8.286;2023-04-06T08:46:51;16.65;;;9.57;;
62848;SDS011;48941;49.516;8.286;2023-04-06T08:49:19;15.23;;;9.65;;
62848;SDS011;48941;49.516;8.286;2023-04-06T08:51:49;16.27;;;9.05;;
62848;SDS011;48941;49.516;8.286;2023-04-06T08:54:17;16.10;;;9.95;;
62848;SDS011;48941;49.516;8.286;2023-04-06T08:56:45;14.25;;;9.48;;
62848;SDS011;48941;49.516;8.286;2023-04-06T08:59:14;17.23;;;10.07;;
62848;SDS011;48941;49.516;8.286;2023-04-06T09:01:42;15.95;;;10.02;;
62848;SDS011;48941;49.516;8.286;2023-04-06T09:04:13;15.68;;;9.90;;
62848;SDS011;48941;49.516;8.286;2023-04-06T09:06:43;13.70;;;9.30;;
62848;SDS011;48941;49.516;8.286;2023-04-06T09:09:12;17.38;;;9.70;;
62848;SDS011;48941;49.516;8.286;2023-04-06T09:11:42;13.85;;;9.73;;
62848;SDS011;48941;49.516;8.286;2023-04-06T09:14:14;17.10;;;9.55;;
62848;SDS011;48941;49.516;8.286;2023-04-06T09:16:44;15.77;;;9.93;;
62848;SDS011;48941;49.516;8.286;2023-04-06T09:19:13;16.88;;;9.68;;
62848;SDS011;48941;49.516;8.286;2023-04-06T09:21:41;12.93;;;9.05;;
62848;SDS011;48941;49.516;8.286;2023-04-06T09:24:09;14.98;;;9.57;;
62848;SDS011;48941;49.516;8.286;2023-04-06T09:26:47;12.23;;;9.02;;
62848;SDS011;48941;49.516;8.286;2023-04-06T09:29:22;15.85;;;9.60;;
62848;SDS011;48941;49.516;8.286;2023-04-06T09:32:01;14.45;;;9.10;;
62848;SDS011;48941;49.516;8.286;2023-04-06T09:34:29;13.60;;;9.35;;
62848;SDS011;48941;49.516;8.286;2023-04-06T09:36:57;13.25;;;8.80;;
62848;SDS011;48941;49.516;8.286;2023-04-06T09:39:25;14.32;;;9.63;;
62848;SDS011;48941;49.516;8.286;2023-04-06T09:41:55;13.50;;;9.23;;
62848;SDS011;48941;49.516;8.286;2023-04-06T09:44:23;15.90;;;8.85;;
62848;SDS011;48941;49.516;8.286;2023-04-06T09:46:52;14.20;;;8.40;;
62848;SDS011;48941;49.516;8.286;2023-04-06T09:49:27;14.80;;;9.77;;
62848;SDS011;48941;49.516;8.286;2023-04-06T09:51:58;15.75;;;9.23;;
62848;SDS011;48941;49.516;8.286;2023-04-06T09:54:28;15.35;;;9.38;;
62848;SDS011;48941;49.516;8.286;2023-04-06T09:57:01;16.60;;;9.52;;
62848;SDS011;48941;49.516;8.286;2023-04-06T09:59:36;15.50;;;9.18;;
62848;SDS011;48941;49.516;8.286;2023-04-06T10:02:08;13.93;;;8.88;;
62848;SDS011;48941;49.516;8.286;2023-04-06T10:04:47;15.13;;;8.85;;
62848;SDS011;48941;49.516;8.286;2023-04-06T10:07:24;15.52;;;9.32;;
62848;SDS011;48941;49.516;8.286;2023-04-06T10:09:54;15.82;;;9.10;;
62848;SDS011;48941;49.516;8.286;2023-04-06T10:12:24;22.23;;;8.95;;
62848;SDS011;48941;49.516;8.286;2023-04-06T10:14:52;16.65;;;8.70;;
62848;SDS011;48941;49.516;8.286;2023-04-06T10:17:21;14.55;;;7.97;;
62848;SDS011;48941;49.516;8.286;2023-04-06T10:19:52;13.75;;;7.88;;
62848;SDS011;48941;49.516;8.286;2023-04-06T10:22:24;10.68;;;7.70;;
62848;SDS011;48941;49.516;8.286;2023-04-06T10:24:56;11.13;;;7.15;;
62848;SDS011;48941;49.516;8.286;2023-04-06T10:27:31;16.45;;;7.43;;
62848;SDS011;48941;49.516;8.286;2023-04-06T10:30:01;12.68;;;7.47;;
62848;SDS011;48941;49.516;8.286;2023-04-06T10:32:33;9.98;;;7.20;;
62848;SDS011;48941;49.516;8.286;2023-04-06T10:35:06;10.95;;;6.60;;
62848;SDS011;48941;49.516;8.286;2023-04-06T10:37:49;10.68;;;6.90;;
62848;SDS011;48941;49.516;8.286;2023-04-06T10:40:22;18.15;;;7.15;;
62848;SDS011;48941;49.516;8.286;2023-04-06T10:42:54;10.77;;;7.35;;
62848;SDS011;48941;49.516;8.286;2023-04-06T10:45:24;11.05;;;7.28;;
62848;SDS011;48941;49.516;8.286;2023-04-06T10:47:53;15.10;;;6.75;;
62848;SDS011;48941;49.516;8.286;2023-04-06T10:50:22;9.25;;;6.03;;
62848;SDS011;48941;49.516;8.286;2023-04-06T10:53:00;9.27;;;6.00;;
62848;SDS011;48941;49.516;8.286;2023-04-06T10:55:29;9.32;;;5.70;;
62848;SDS011;48941;49.516;8.286;2023-04-06T10:58:00;10.10;;;5.80;;
62848;SDS011;48941;49.516;8.286;2023-04-06T11:00:29;9.48;;;6.15;;
62848;SDS011;48941;49.516;8.286;2023-04-06T11:03:15;11.70;;;5.68;;
62848;SDS011;48941;49.516;8.286;2023-04-06T11:05:43;9.68;;;5.78;;
62848;SDS011;48941;49.516;8.286;2023-04-06T11:08:21;10.80;;;5.47;;
62848;SDS011;48941;49.516;8.286;2023-04-06T11:10:50;8.02;;;5.07;;
62848;SDS011;48941;49.516;8.286;2023-04-06T11:13:19;8.30;;;5.88;;
62848;SDS011;48941;49.516;8.286;2023-04-06T11:15:47;9.43;;;6.00;;
62848;SDS011;48941;49.516;8.286;2023-04-06T11:18:17;10.65;;;6.47;;
62848;SDS011;48941;49.516;8.286;2023-04-06T11:20:47;11.70;;;6.43;;
62848;SDS011;48941;49.516;8.286;2023-04-06T11:23:22;10.23;;;6.30;;
62848;SDS011;48941;49.516;8.286;2023-04-06T11:25:51;8.05;;;5.88;;
62848;SDS011;48941;49.516;8.286;2023-04-06T11:28:21;9.38;;;6.68;;
62848;SDS011;48941;49.516;8.286;2023-04-06T11:30:49;9.25;;;5.80;;
62848;SDS011;48941;49.516;8.286;2023-04-06T11:33:21;9.60;;;5.90;;
62848;SDS011;48941;49.516;8.286;2023-04-06T11:35:49;10.82;;;6.15;;
62848;SDS011;48941;49.516;8.286;2023-04-06T11:38:17;7.70;;;5.68;;
62848;SDS011;48941;49.516;8.286;2023-04-06T11:40:47;8.65;;;5.95;;
62848;SDS011;48941;49.516;8.286;2023-04-06T11:43:27;8.82;;;5.85;;
62848;SDS011;48941;49.516;8.286;2023-04-06T11:46:02;9.35;;;6.38;;
62848;SDS011;48941;49.516;8.286;2023-04-06T11:48:33;8.68;;;5.93;;
62848;SDS011;48941;49.516;8.286;2023-04-06T11:51:12;8.27;;;5.60;;
62848;SDS011;48941;49.516;8.286;2023-04-06T11:53:43;12.52;;;5.72;;
62848;SDS011;48941;49.516;8.286;2023-04-06T11:56:22;8.40;;;6.00;;
62848;SDS011;48941;49.516;8.286;2023-04-06T11:58:53;9.43;;;5.55;;
62848;SDS011;48941;49.516;8.286;2023-04-06T12:01:22;9.32;;;5.80;;
62848;SDS011;48941;49.516;8.286;2023-04-06T12:03:51;8.13;;;5.57;;
62848;SDS011;48941;49.516;8.286;2023-04-06T12:06:19;7.47;;;5.78;;
62848;SDS011;48941;49.516;8.286;2023-04-06T12:08:47;10.80;;;6.40;;
62848;SDS011;48941;49.516;8.286;2023-04-06T12:11:16;13.80;;;6.75;;
62848;SDS011;48941;49.516;8.286;2023-04-06T12:13:45;8.88;;;6.38;;
62848;SDS011;48941;49.516;8.286;2023-04-06T12:16:14;8.50;;;6.30;;
62848;SDS011;48941;49.516;8.286;2023-04-06T12:18:42;15.98;;;7.93;;
62848;SDS011;48941;49.516;8.286;2023-04-06T12:21:09;11.38;;;7.22;;
62848;SDS011;48941;49.516;8.286;2023-04-06T12:23:37;11.30;;;6.85;;
62848;SDS011;48941;49.516;8.286;2023-04-06T12:26:05;7.90;;;6.30;;
62848;SDS011;48941;49.516;8.286;2023-04-06T12:28:38;9.82;;;6.20;;
62848;SDS011;48941;49.516;8.286;2023-04-06T12:31:07;9.40;;;6.45;;
62848;SDS011;48941;49.516;8.286;2023-04-06T12:33:43;10.30;;;6.75;;
62848;SDS011;48941;49.516;8.286;2023-04-06T12:36:14;12.50;;;7.57;;
62848;SDS011;48941;49.516;8.286;2023-04-06T12:38:46;10.75;;;6.40;;
62848;SDS011;48941;49.516;8.286;2023-04-06T12:41:15;9.60;;;6.13;;
62848;SDS011;48941;49.516;8.286;2023-04-06T12:43:43;12.73;;;6.57;;
62848;SDS011;48941;49.516;8.286;2023-04-06T12:46:11;8.55;;;5.50;;
62848;SDS011;48941;49.516;8.286;2023-04-06T12:48:41;8.10;;;6.00;;
62848;SDS011;48941;49.516;8.286;2023-04-06T12:51:09;9.00;;;6.00;;
62848;SDS011;48941;49.516;8.286;2023-04-06T12:53:36;8.73;;;5.85;;
62848;SDS011;48941;49.516;8.286;2023-04-06T12:56:11;9.52;;;5.85;;
62848;SDS011;48941;49.516;8.286;2023-04-06T12:58:39;10.27;;;5.53;;
62848;SDS011;48941;49.516;8.286;2023-04-06T13:01:08;9.70;;;5.82;;
62848;SDS011;48941;49.516;8.286;2023-04-06T13:03:37;12.10;;;5.50;;
62848;SDS011;48941;49.516;8.286;2023-04-06T13:06:07;8.50;;;5.88;;
62848;SDS011;48941;49.516;8.286;2023-04-06T13:08:36;9.55;;;5.53;;
62848;SDS011;48941;49.516;8.286;2023-04-06T13:11:04;7.53;;;5.40;;
62848;SDS011;48941;49.516;8.286;2023-04-06T13:13:34;8.63;;;5.68;;
62848;SDS011;48941;49.516;8.286;2023-04-06T13:16:03;8.65;;;5.53;;
62848;SDS011;48941;49.516;8.286;2023-04-06T13:18:32;10.57;;;5.45;;
62848;SDS011;48941;49.516;8.286;2023-04-06T13:21:00;11.07;;;5.60;;
62848;SDS011;48941;49.516;8.286;2023-04-06T13:23:30;7.82;;;5.07;;
62848;SDS011;48941;49.516;8.286;2023-04-06T13:25:58;9.20;;;5.40;;
62848;SDS011;48941;49.516;8.286;2023-04-06T13:28:27;9.00;;;5.00;;
62848;SDS011;48941;49.516;8.286;2023-04-06T13:30:57;8.68;;;5.07;;
62848;SDS011;48941;49.516;8.286;2023-04-06T13:33:26;9.07;;;5.05;;
62848;SDS011;48941;49.516;8.286;2023-04-06T13:35:54;7.95;;;4.90;;
62848;SDS011;48941;49.516;8.286;2023-04-06T13:38:22;7.30;;;5.07;;
62848;SDS011;48941;49.516;8.286;2023-04-06T13:40:51;7.50;;;4.80;;
62848;SDS011;48941;49.516;8.286;2023-04-06T13:43:19;7.78;;;4.75;;
62848;SDS011;48941;49.516;8.286;2023-04-06T13:45:50;8.25;;;5.18;;
62848;SDS011;48941;49.516;8.286;2023-04-06T13:50:48;7.93;;;4.63;;
62848;SDS011;48941;49.516;8.286;2023-04-06T13:53:16;9.23;;;5.05;;
62848;SDS011;48941;49.516;8.286;2023-04-06T13:55:47;11.38;;;5.13;;
62848;SDS011;48941;49.516;8.286;2023-04-06T13:58:21;7.60;;;5.25;;
62848;SDS011;48941;49.516;8.286;2023-04-06T14:00:49;9.10;;;5.45;;
62848;SDS011;48941;49.516;8.286;2023-04-06T14:03:19;8.68;;;5.00;;
62848;SDS011;48941;49.516;8.286;2023-04-06T14:05:47;10.63;;;6.00;;
62848;SDS011;48941;49.516;8.286;2023-04-06T14:08:15;10.43;;;5.47;;
62848;SDS011;48941;49.516;8.286;2023-04-06T14:10:43;8.73;;;5.38;;
62848;SDS011;48941;49.516;8.286;2023-04-06T14:13:12;9.93;;;5.68;;
62848;SDS011;48941;49.516;8.286;2023-04-06T14:15:40;7.82;;;5.20;;
62848;SDS011;48941;49.516;8.286;2023-04-06T14:18:08;10.40;;;5.60;;
62848;SDS011;48941;49.516;8.286;2023-04-06T14:20:36;8.88;;;4.90;;
62848;SDS011;48941;49.516;8.286;2023-04-06T14:23:04;8.90;;;5.10;;
62848;SDS011;48941;49.516;8.286;2023-04-06T14:25:32;8.20;;;5.15;;
62848;SDS011;48941;49.516;8.286;2023-04-06T14:28:01;10.90;;;5.38;;
62848;SDS011;48941;49.516;8.286;2023-04-06T14:30:30;14.80;;;5.47;;
62848;SDS011;48941;49.516;8.286;2023-04-06T14:32:58;9.30;;;5.32;;
62848;SDS011;48941;49.516;8.286;2023-04-06T14:35:26;13.57;;;5.32;;
62848;SDS011;48941;49.516;8.286;2023-04-06T14:37:54;11.55;;;5.78;;
62848;SDS011;48941;49.516;8.286;2023-04-06T14:40:24;9.60;;;5.93;;
62848;SDS011;48941;49.516;8.286;2023-04-06T14:42:52;9.18;;;5.63;;
62848;SDS011;48941;49.516;8.286;2023-04-06T14:45:21;9.82;;;5.78;;
62848;SDS011;48941;49.516;8.286;2023-04-06T14:47:51;10.30;;;5.75;;
62848;SDS011;48941;49.516;8.286;2023-04-06T14:50:18;9.25;;;5.97;;
62848;SDS011;48941;49.516;8.286;2023-04-06T14:52:46;10.13;;;6.05;;